Tampa, Florida
Traffic Map
Current Weather Conditions
Tampa, Florida
Few Clouds
Few Clouds
22°
Feels Like: 22°
Wind Chill: 22° Ceiling: Unl
Heat Index: 22° Visibility: 10mi
Dew Point: 21° Wind: 8mph
Humidity: 93% Direction: 340° (NNW)
Pressure: 29.67in Gusts: 0mph
Raw Report DataKTPA 042304Z 34007KT 10SM FEW006 FEW050 22/21 A2967 RMK AO2 T02170206
Traffic Incident Summary
Active as of:
Severity:
Category:
InformationThere was an issue retrieving the traffic information for this location. Please try a different location or try again shortly.
Advertisements
Track Severe Weather on mobile